Springfield, Wisconsin
Current Conditions -  °F | °C
As of 8:55 AM on Tuesday 21 Oct 2014 (Local Time) from KBUU Reporting Station
Overcast Overcast  
Wind Chill: 41°   Ceiling: 3000
Heat Index: 44°   Visibility: 10mi
Dew Point: 38°   Wind: 6mph
Humidity: 79%   Direction: 360°N
Pressure: 30.17"   Gusts: NA
Location:  42.64°N, 88.41°W
Report Text: KBUU 211355Z AUTO 36005KT 10SM OVC030 07/03 A3017 RMK AO2 T00660032
Loading
Personal Weather Stations






























Interactive Weather Map
Tropical Storm Tracking
New forecast layout! Learn more

10-Day Weather Forecast

Advertisements
Track Severe Weather on mobile